createdAt,value
2017-12-16T00:01:19.694Z,5.15
2017-12-16T00:04:07.620Z,3.17
2017-12-16T00:06:37.287Z,6.60
2017-12-16T00:09:05.654Z,9.80
2017-12-16T00:11:34.018Z,3.37
2017-12-16T00:14:02.461Z,7.80
2017-12-16T00:16:30.865Z,7.32
2017-12-16T00:19:00.053Z,5.68
2017-12-16T00:21:29.526Z,11.95
2017-12-16T00:23:58.906Z,9.05
2017-12-16T00:26:27.402Z,9.88
2017-12-16T00:28:55.778Z,3.83
2017-12-16T00:31:24.330Z,3.47
2017-12-16T00:33:52.748Z,4.60
2017-12-16T00:36:21.112Z,3.20
2017-12-16T00:38:49.494Z,3.90
2017-12-16T00:41:17.870Z,8.25
2017-12-16T00:43:46.546Z,8.60
2017-12-16T00:46:14.851Z,30.73
2017-12-16T00:48:43.298Z,12.10
2017-12-16T00:51:11.676Z,7.45
2017-12-16T00:53:40.075Z,8.35
2017-12-16T00:56:08.461Z,7.45
2017-12-16T00:58:36.828Z,6.57
2017-12-16T01:01:05.422Z,7.32
2017-12-16T01:03:33.810Z,6.43
2017-12-16T01:06:02.206Z,6.05
2017-12-16T01:08:31.362Z,3.00
2017-12-16T01:11:00.142Z,10.75
2017-12-16T01:13:29.148Z,17.15
2017-12-16T01:15:57.602Z,5.15
2017-12-16T01:18:27.233Z,5.62
2017-12-16T01:20:55.653Z,6.32
2017-12-16T01:23:24.793Z,5.32
2017-12-16T01:25:53.681Z,8.35
2017-12-16T01:28:22.059Z,5.28
2017-12-16T01:30:50.419Z,7.22
2017-12-16T01:33:18.810Z,3.62
2017-12-16T01:36:04.893Z,3.22
2017-12-16T01:38:37.881Z,6.37
2017-12-16T01:41:06.265Z,4.47
2017-12-16T01:43:34.705Z,4.82
2017-12-16T01:46:03.464Z,7.22
2017-12-16T01:48:31.833Z,5.62
2017-12-16T01:51:00.224Z,5.28
2017-12-16T01:53:28.586Z,6.15
2017-12-16T01:55:57.009Z,7.57
2017-12-16T01:58:25.373Z,6.43
2017-12-16T02:00:53.765Z,5.28
2017-12-16T02:03:22.165Z,6.25
2017-12-16T02:05:51.298Z,4.60
2017-12-16T02:08:20.073Z,9.57
2017-12-16T02:10:48.922Z,6.25
2017-12-16T02:13:18.059Z,7.57
2017-12-16T02:15:46.456Z,10.65
2017-12-16T02:18:15.261Z,11.30
2017-12-16T02:20:44.372Z,4.75
2017-12-16T02:23:13.212Z,5.70
2017-12-16T02:25:42.037Z,5.35
2017-12-16T02:28:10.434Z,6.75
2017-12-16T02:30:39.250Z,6.12
2017-12-16T02:33:07.854Z,2.90
2017-12-16T02:35:36.255Z,7.00
2017-12-16T02:38:04.641Z,6.82
2017-12-16T02:40:33.033Z,6.07
2017-12-16T02:43:01.407Z,8.93
2017-12-16T02:45:29.914Z,3.67
2017-12-16T02:47:59.162Z,5.32
2017-12-16T02:50:27.530Z,3.22
2017-12-16T02:52:55.966Z,6.18
2017-12-16T02:55:25.106Z,5.82
2017-12-16T02:57:53.534Z,6.75
2017-12-16T03:00:21.902Z,9.55
2017-12-16T03:02:50.261Z,4.10
2017-12-16T03:05:18.662Z,7.40
2017-12-16T03:07:47.030Z,4.90
2017-12-16T03:10:15.689Z,3.97
2017-12-16T03:12:44.067Z,2.83
2017-12-16T03:15:12.447Z,4.18
2017-12-16T03:17:40.841Z,9.55
2017-12-16T03:20:09.224Z,6.53
2017-12-16T03:22:37.717Z,4.18
2017-12-16T03:25:06.085Z,6.97
2017-12-16T03:27:34.454Z,3.67
2017-12-16T03:30:02.853Z,5.85
2017-12-16T03:32:31.235Z,2.70
2017-12-16T03:34:59.861Z,3.85
2017-12-16T03:37:28.228Z,3.90
2017-12-16T03:39:56.591Z,3.25
2017-12-16T03:42:25.799Z,7.35
2017-12-16T03:44:54.165Z,4.93
2017-12-16T03:47:23.501Z,2.50
2017-12-16T03:49:51.870Z,2.47
2017-12-16T03:52:20.275Z,2.87
2017-12-16T03:54:48.671Z,3.35
2017-12-16T03:57:17.050Z,5.90
2017-12-16T03:59:45.680Z,6.22
2017-12-16T04:02:14.058Z,5.28
2017-12-16T04:04:42.541Z,8.75
2017-12-16T04:07:10.935Z,4.05
2017-12-16T04:09:39.304Z,3.92
2017-12-16T04:12:07.746Z,2.97
2017-12-16T04:14:36.115Z,5.20
2017-12-16T04:17:04.496Z,4.55
2017-12-16T04:19:32.885Z,2.83
2017-12-16T04:22:01.266Z,4.15
2017-12-16T04:24:30.465Z,4.35
2017-12-16T04:26:59.603Z,7.22
2017-12-16T04:29:27.987Z,2.12
2017-12-16T04:31:56.378Z,7.03
2017-12-16T04:34:24.737Z,7.20
2017-12-16T04:36:53.134Z,4.15
2017-12-16T04:39:21.545Z,6.37
2017-12-16T04:41:49.925Z,6.15
2017-12-16T04:44:18.870Z,5.40
2017-12-16T04:46:47.691Z,3.30
2017-12-16T04:49:16.796Z,4.10
2017-12-16T04:51:45.571Z,34.40
2017-12-16T04:54:14.375Z,17.75
2017-12-16T04:56:43.210Z,5.53
2017-12-16T04:59:11.983Z,9.70
2017-12-16T05:01:40.943Z,2.80
2017-12-16T05:04:10.767Z,9.07
2017-12-16T05:06:40.415Z,3.25
2017-12-16T05:09:08.806Z,6.35
2017-12-16T05:11:37.181Z,2.97
2017-12-16T05:14:05.631Z,8.13
2017-12-16T05:16:34.002Z,11.93
2017-12-16T05:19:02.724Z,5.70
2017-12-16T05:21:31.088Z,6.65
2017-12-16T05:23:59.459Z,3.22
2017-12-16T05:26:27.878Z,4.62
2017-12-16T05:28:56.253Z,4.03
2017-12-16T05:31:24.918Z,15.35
2017-12-16T05:33:53.294Z,3.95
2017-12-16T05:36:21.666Z,10.88
2017-12-16T05:38:50.053Z,3.70
2017-12-16T05:41:18.419Z,2.95
2017-12-16T05:43:46.919Z,2.65
2017-12-16T05:46:15.319Z,7.55
2017-12-16T05:48:43.686Z,3.30
2017-12-16T05:51:12.849Z,2.90
2017-12-16T05:53:41.226Z,4.57
2017-12-16T05:56:10.020Z,3.25
2017-12-16T05:58:38.403Z,7.85
2017-12-16T06:01:06.774Z,3.45
2017-12-16T06:03:35.168Z,17.15
2017-12-16T06:06:03.548Z,5.95
2017-12-16T06:08:31.944Z,5.40
2017-12-16T06:11:00.314Z,5.25
2017-12-16T06:13:28.697Z,4.37
2017-12-16T06:15:57.092Z,5.95
2017-12-16T06:18:25.470Z,6.45
2017-12-16T06:20:54.217Z,6.20
2017-12-16T06:23:22.582Z,2.40
2017-12-16T06:25:50.969Z,5.60
2017-12-16T06:28:19.353Z,2.87
2017-12-16T06:30:47.722Z,3.58
2017-12-16T06:33:16.225Z,3.53
2017-12-16T06:35:44.603Z,6.87
2017-12-16T06:38:12.977Z,5.25
2017-12-16T06:40:41.374Z,3.05
2017-12-16T06:43:09.740Z,1.95
2017-12-16T06:45:38.253Z,12.15
2017-12-16T06:48:06.630Z,5.95
2017-12-16T06:50:35.009Z,7.97
2017-12-16T06:53:03.406Z,6.85
2017-12-16T06:55:32.649Z,5.12
2017-12-16T06:58:01.056Z,5.15
2017-12-16T07:00:29.437Z,5.32
2017-12-16T07:02:58.289Z,7.82
2017-12-16T07:05:26.705Z,6.22
2017-12-16T07:07:55.148Z,7.62
2017-12-16T07:10:23.626Z,5.47
2017-12-16T07:12:52.004Z,7.55
2017-12-16T07:15:20.385Z,6.03
2017-12-16T07:17:48.770Z,6.20
2017-12-16T07:20:17.158Z,10.07
2017-12-16T07:22:45.613Z,3.72
2017-12-16T07:25:13.997Z,11.12
2017-12-16T07:27:42.373Z,8.38
2017-12-16T07:30:10.758Z,3.83
2017-12-16T07:32:39.128Z,6.85
2017-12-16T07:35:07.626Z,4.82
2017-12-16T07:37:35.997Z,9.40
2017-12-16T07:40:04.360Z,2.90
2017-12-16T07:42:33.025Z,4.15
2017-12-16T07:45:02.172Z,3.72
2017-12-16T07:47:30.669Z,11.27
2017-12-16T07:49:59.932Z,4.55
2017-12-16T07:52:28.325Z,3.47
2017-12-16T07:54:56.730Z,7.40
2017-12-16T07:57:25.163Z,5.37
2017-12-16T07:59:53.656Z,8.73
2017-12-16T08:02:22.060Z,3.17
2017-12-16T08:04:50.442Z,6.43
2017-12-16T08:07:18.842Z,9.00
2017-12-16T08:09:47.257Z,8.30
2017-12-16T08:12:16.492Z,8.07
2017-12-16T08:14:44.851Z,5.45
2017-12-16T08:17:13.206Z,8.73
2017-12-16T08:19:41.603Z,9.10
2017-12-16T08:22:09.991Z,10.10
2017-12-16T08:24:38.386Z,9.25
2017-12-16T08:27:06.746Z,8.48
2017-12-16T08:29:35.141Z,8.50
2017-12-16T08:32:03.530Z,10.30
2017-12-16T08:34:31.937Z,6.43
2017-12-16T08:37:01.118Z,8.45
2017-12-16T08:39:30.268Z,4.65
2017-12-16T08:41:58.674Z,6.00
2017-12-16T08:44:27.054Z,8.45
2017-12-16T08:46:55.418Z,11.05
2017-12-16T08:49:23.849Z,12.20
2017-12-16T08:51:52.997Z,9.20
2017-12-16T08:54:21.387Z,10.23
2017-12-16T08:56:49.778Z,8.18
2017-12-16T08:59:18.165Z,10.27
2017-12-16T09:01:46.826Z,10.38
2017-12-16T09:04:15.229Z,11.68
2017-12-16T09:06:43.596Z,10.57
2017-12-16T09:09:11.980Z,10.35
2017-12-16T09:11:40.359Z,7.50
2017-12-16T09:14:08.766Z,13.32
2017-12-16T09:16:37.147Z,11.88
2017-12-16T09:19:05.534Z,14.13
2017-12-16T09:21:33.928Z,11.85
2017-12-16T09:24:02.290Z,10.00
2017-12-16T09:26:30.920Z,14.55
2017-12-16T09:28:59.297Z,10.15
2017-12-16T09:31:27.681Z,17.80
2017-12-16T09:33:56.268Z,11.00
2017-12-16T09:36:25.426Z,21.67
2017-12-16T09:38:53.914Z,8.73
2017-12-16T09:41:23.107Z,15.55
2017-12-16T09:43:51.530Z,12.25
2017-12-16T09:46:19.936Z,11.52
2017-12-16T09:48:49.070Z,13.70
2017-12-16T09:51:17.565Z,11.00
2017-12-16T09:53:46.066Z,11.40
2017-12-16T09:56:14.452Z,17.10
2017-12-16T09:58:42.992Z,15.63
2017-12-16T10:01:11.398Z,11.10
2017-12-16T10:03:40.263Z,11.65
2017-12-16T10:06:08.670Z,22.35
2017-12-16T10:08:37.115Z,17.45
2017-12-16T10:11:05.524Z,21.12
2017-12-16T10:13:33.906Z,13.65
2017-12-16T10:16:02.469Z,13.50
2017-12-16T10:18:31.160Z,13.27
2017-12-16T10:20:59.553Z,14.35
2017-12-16T10:23:27.973Z,15.27
2017-12-16T10:25:56.341Z,16.67
2017-12-16T10:28:25.771Z,18.12
2017-12-16T10:30:54.135Z,10.43
2017-12-16T10:33:22.523Z,14.23
2017-12-16T10:35:50.936Z,15.50
2017-12-16T10:38:19.348Z,15.23
2017-12-16T10:40:49.244Z,18.77
2017-12-16T10:43:35.834Z,20.00
2017-12-16T10:46:04.657Z,17.85
2017-12-16T10:48:33.056Z,14.13
2017-12-16T10:51:01.432Z,17.20
2017-12-16T10:53:29.846Z,18.87
2017-12-16T10:56:02.882Z,13.23
2017-12-16T10:58:31.814Z,19.05
2017-12-16T11:01:04.711Z,23.85
2017-12-16T11:03:34.484Z,15.75
2017-12-16T11:06:02.971Z,20.55
2017-12-16T11:08:34.414Z,16.80
2017-12-16T11:11:03.393Z,16.65
2017-12-16T11:13:32.131Z,17.25
2017-12-16T11:16:00.894Z,14.60
2017-12-16T11:18:29.363Z,18.70
2017-12-16T11:20:58.511Z,14.75
2017-12-16T11:23:27.115Z,12.85
2017-12-16T11:25:56.284Z,29.17
2017-12-16T11:28:24.680Z,14.45
2017-12-16T11:30:53.045Z,11.50
2017-12-16T11:33:21.489Z,13.25
2017-12-16T11:35:49.858Z,15.90
2017-12-16T11:38:18.253Z,14.25
2017-12-16T11:40:46.642Z,11.32
2017-12-16T11:43:15.117Z,17.23
2017-12-16T11:45:43.698Z,13.80
2017-12-16T11:48:12.069Z,13.82
2017-12-16T11:50:40.439Z,10.30
2017-12-16T11:53:08.836Z,13.35
2017-12-16T11:55:37.259Z,11.38
2017-12-16T11:58:05.822Z,12.98
2017-12-16T12:00:34.197Z,15.85
2017-12-16T12:03:02.623Z,11.43
2017-12-16T12:05:31.051Z,20.48
2017-12-16T12:07:59.429Z,12.90
2017-12-16T12:10:27.952Z,11.90
2017-12-16T12:12:56.311Z,14.38
2017-12-16T12:15:24.680Z,11.95
2017-12-16T12:17:53.065Z,15.50
2017-12-16T12:20:21.548Z,14.87
2017-12-16T12:22:49.965Z,10.18
2017-12-16T12:25:18.374Z,13.73
2017-12-16T12:27:46.758Z,12.05
2017-12-16T12:30:15.662Z,11.30
2017-12-16T12:32:44.414Z,14.80
2017-12-16T12:35:13.214Z,11.12
2017-12-16T12:37:41.587Z,15.02
2017-12-16T12:40:09.957Z,13.38
2017-12-16T12:42:38.463Z,17.02
2017-12-16T12:45:06.853Z,13.23
2017-12-16T12:47:35.346Z,15.48
2017-12-16T12:50:03.710Z,11.68
2017-12-16T12:52:32.210Z,12.75
2017-12-16T12:55:00.676Z,16.67
2017-12-16T12:57:29.137Z,22.27
2017-12-16T12:59:57.734Z,12.18
2017-12-16T13:02:26.130Z,20.12
2017-12-16T13:04:54.523Z,18.33
2017-12-16T13:07:23.720Z,21.27
2017-12-16T13:09:52.878Z,18.95
2017-12-16T13:12:21.573Z,19.33
2017-12-16T13:14:50.129Z,24.73
2017-12-16T13:17:18.625Z,23.02
2017-12-16T13:19:47.329Z,19.83
2017-12-16T13:22:15.738Z,21.17
2017-12-16T13:24:44.394Z,20.02
2017-12-16T13:27:12.770Z,18.87
2017-12-16T13:29:41.217Z,16.67
2017-12-16T13:32:09.741Z,14.75
2017-12-16T13:34:38.433Z,14.25
2017-12-16T13:37:06.959Z,27.60
2017-12-16T13:39:35.348Z,15.98
2017-12-16T13:42:03.730Z,12.63
2017-12-16T13:44:32.130Z,26.02
2017-12-16T13:47:00.492Z,9.25
2017-12-16T13:49:29.091Z,10.50
2017-12-16T13:51:57.530Z,14.85
2017-12-16T13:54:25.889Z,11.18
2017-12-16T13:56:54.309Z,16.62
2017-12-16T13:59:22.713Z,14.80
2017-12-16T14:01:51.812Z,16.83
2017-12-16T14:04:20.563Z,19.37
2017-12-16T14:06:49.282Z,19.87
2017-12-16T14:09:18.091Z,25.85
2017-12-16T14:11:47.148Z,28.52
2017-12-16T14:14:15.694Z,27.65
2017-12-16T14:16:44.170Z,25.33
2017-12-16T14:19:12.544Z,25.15
2017-12-16T14:21:40.942Z,21.50
2017-12-16T14:24:09.317Z,28.87
2017-12-16T14:26:38.120Z,20.42
2017-12-16T14:29:06.687Z,27.33
2017-12-16T14:31:35.082Z,20.25
2017-12-16T14:34:03.495Z,21.17
2017-12-16T14:36:31.976Z,21.87
2017-12-16T14:39:00.738Z,17.85
2017-12-16T14:41:29.116Z,26.42
2017-12-16T14:43:57.487Z,25.05
2017-12-16T14:46:25.874Z,25.05
2017-12-16T14:48:54.793Z,27.62
2017-12-16T14:51:23.313Z,26.45
2017-12-16T14:53:51.724Z,21.85
2017-12-16T14:56:20.124Z,20.40
2017-12-16T14:58:48.652Z,30.37
2017-12-16T15:01:17.056Z,23.30
2017-12-16T15:03:45.758Z,31.67
2017-12-16T15:06:14.300Z,32.55
2017-12-16T15:08:42.900Z,45.05
2017-12-16T15:11:11.520Z,26.42
2017-12-16T15:13:40.004Z,30.12
2017-12-16T15:16:08.936Z,29.12
2017-12-16T15:18:37.314Z,33.55
2017-12-16T15:21:06.559Z,25.08
2017-12-16T15:23:35.521Z,33.22
2017-12-16T15:26:03.966Z,42.13
2017-12-16T15:28:32.487Z,32.70
2017-12-16T15:31:01.030Z,30.60
2017-12-16T15:33:29.788Z,35.33
2017-12-16T15:35:59.361Z,32.47
2017-12-16T15:38:27.920Z,30.10
2017-12-16T15:40:57.056Z,28.38
2017-12-16T15:43:25.741Z,29.80
2017-12-16T15:45:55.054Z,43.03
2017-12-16T15:48:23.780Z,37.15
2017-12-16T15:50:52.555Z,36.35
2017-12-16T15:53:21.567Z,44.38
2017-12-16T15:55:51.071Z,36.25
2017-12-16T15:58:19.721Z,37.65
2017-12-16T16:00:48.253Z,39.72
2017-12-16T16:03:16.904Z,34.45
2017-12-16T16:05:45.902Z,46.28
2017-12-16T16:08:14.411Z,43.97
2017-12-16T16:10:42.851Z,48.22
2017-12-16T16:13:11.432Z,39.63
2017-12-16T16:15:40.651Z,41.65
2017-12-16T16:18:09.446Z,37.95
2017-12-16T16:20:38.649Z,37.67
2017-12-16T16:23:08.213Z,49.58
2017-12-16T16:25:36.885Z,40.10
2017-12-16T16:28:05.625Z,39.05
2017-12-16T16:30:34.248Z,39.92
2017-12-16T16:33:02.735Z,36.88
2017-12-16T16:35:31.175Z,42.10
2017-12-16T16:37:59.682Z,39.08
2017-12-16T16:40:28.123Z,48.45
2017-12-16T16:42:56.681Z,41.58
2017-12-16T16:45:25.285Z,36.20
2017-12-16T16:47:53.780Z,37.90
2017-12-16T16:50:22.414Z,36.80
2017-12-16T16:52:52.031Z,35.97
2017-12-16T16:55:21.410Z,32.85
2017-12-16T16:57:49.794Z,47.58
2017-12-16T17:00:18.441Z,37.05
2017-12-16T17:02:47.068Z,34.88
2017-12-16T17:05:15.618Z,34.83
2017-12-16T17:07:44.256Z,35.33
2017-12-16T17:10:12.663Z,43.42
2017-12-16T17:12:41.555Z,38.45
2017-12-16T17:15:10.926Z,55.97
2017-12-16T17:17:40.353Z,38.88
2017-12-16T17:20:09.174Z,29.65
2017-12-16T17:22:38.604Z,35.10
2017-12-16T17:25:07.394Z,35.42
2017-12-16T17:28:01.904Z,32.00
2017-12-16T17:33:16.387Z,51.20
2017-12-16T17:35:45.010Z,35.97
2017-12-16T17:38:14.058Z,31.23
2017-12-16T17:40:42.601Z,39.58
2017-12-16T17:43:11.264Z,36.13
2017-12-16T17:45:40.092Z,43.33
2017-12-16T17:48:08.817Z,35.88
2017-12-16T17:50:37.801Z,37.88
2017-12-16T17:53:06.772Z,38.25
2017-12-16T17:55:36.746Z,42.53
2017-12-16T17:58:05.523Z,37.58
2017-12-16T18:00:34.316Z,41.15
2017-12-16T18:03:03.259Z,49.25
2017-12-16T18:05:32.019Z,55.03
2017-12-16T18:08:01.422Z,69.65
2017-12-16T18:10:30.435Z,41.50
2017-12-16T18:12:59.937Z,56.72
2017-12-16T18:15:30.965Z,44.83
2017-12-16T18:18:08.947Z,44.17
2017-12-16T18:20:37.867Z,43.58
2017-12-16T18:23:06.916Z,31.67
2017-12-16T18:25:35.864Z,38.67
2017-12-16T18:28:04.757Z,41.63
2017-12-16T18:30:34.224Z,42.85
2017-12-16T18:33:03.216Z,40.05
2017-12-16T18:35:31.978Z,39.13
2017-12-16T18:38:00.601Z,37.80
2017-12-16T18:40:29.984Z,44.15
2017-12-16T18:42:58.729Z,50.20
2017-12-16T18:45:27.952Z,46.15
2017-12-16T18:47:56.624Z,53.05
2017-12-16T18:50:26.310Z,55.12
2017-12-16T18:52:55.166Z,81.90
2017-12-16T18:55:23.772Z,83.40
2017-12-16T18:57:52.502Z,69.68
2017-12-16T19:00:21.351Z,71.85
2017-12-16T19:02:51.243Z,84.28
2017-12-16T19:05:19.976Z,71.87
2017-12-16T19:07:48.730Z,68.37
2017-12-16T19:10:17.663Z,68.43
2017-12-16T19:12:46.215Z,54.42
2017-12-16T19:15:15.213Z,59.60
2017-12-16T19:17:44.416Z,70.85
2017-12-16T19:20:12.813Z,63.97
2017-12-16T19:22:42.200Z,73.40
2017-12-16T19:25:10.644Z,57.35
2017-12-16T19:27:39.156Z,57.85
2017-12-16T19:30:10.574Z,58.92
2017-12-16T19:32:40.088Z,61.20
2017-12-16T19:35:09.709Z,60.45
2017-12-16T19:37:38.860Z,75.40
2017-12-16T19:40:07.275Z,62.85
2017-12-16T19:42:36.219Z,66.55
2017-12-16T19:45:04.640Z,64.97
2017-12-16T19:47:33.040Z,72.57
2017-12-16T19:50:01.524Z,71.07
2017-12-16T19:52:30.145Z,65.30
2017-12-16T19:54:58.674Z,77.12
2017-12-16T19:57:27.116Z,77.20
2017-12-16T19:59:55.610Z,68.53
2017-12-16T20:02:24.040Z,65.12
2017-12-16T20:04:54.017Z,62.67
2017-12-16T20:07:23.747Z,64.28
2017-12-16T20:09:52.171Z,67.30
2017-12-16T20:12:21.289Z,66.00
2017-12-16T20:14:50.117Z,59.80
2017-12-16T20:17:18.682Z,72.65
2017-12-16T20:19:47.589Z,58.90
2017-12-16T20:22:16.661Z,72.05
2017-12-16T20:24:45.490Z,58.35
2017-12-16T20:27:15.078Z,61.22
2017-12-16T20:29:44.348Z,60.53
2017-12-16T20:32:14.053Z,84.35
2017-12-16T20:34:42.801Z,51.00
2017-12-16T20:37:11.409Z,76.00
2017-12-16T20:39:40.473Z,69.78
2017-12-16T20:42:09.593Z,58.17
2017-12-16T20:44:38.406Z,62.53
2017-12-16T20:47:08.164Z,61.53
2017-12-16T20:49:37.225Z,66.15
2017-12-16T20:52:06.610Z,73.87
2017-12-16T20:54:36.130Z,88.22
2017-12-16T20:57:04.936Z,78.95
2017-12-16T20:59:34.576Z,65.35
2017-12-16T21:02:03.995Z,86.70
2017-12-16T21:04:32.927Z,76.03
2017-12-16T21:07:03.261Z,62.58
2017-12-16T21:09:33.416Z,72.47
2017-12-16T21:12:02.671Z,62.15
2017-12-16T21:14:32.457Z,62.03
2017-12-16T21:17:01.894Z,61.60
2017-12-16T21:19:30.591Z,61.60
2017-12-16T21:21:59.412Z,60.50
2017-12-16T21:24:29.441Z,57.22
2017-12-16T21:26:59.159Z,59.25
2017-12-16T21:29:28.374Z,61.63
2017-12-16T21:31:58.344Z,61.17
2017-12-16T21:34:28.025Z,62.22
2017-12-16T21:36:59.488Z,56.17
2017-12-16T21:39:28.529Z,53.03
2017-12-16T21:41:57.249Z,57.42
2017-12-16T21:44:26.019Z,53.15
2017-12-16T21:46:55.870Z,60.78
2017-12-16T21:49:25.649Z,46.03
2017-12-16T21:54:29.522Z,54.40
2017-12-16T21:56:58.894Z,54.95
2017-12-16T21:59:27.608Z,57.78
2017-12-16T22:01:56.498Z,47.10
2017-12-16T22:04:24.987Z,50.97
2017-12-16T22:06:56.458Z,54.17
2017-12-16T22:09:26.204Z,51.37
2017-12-16T22:11:54.831Z,52.80
2017-12-16T22:14:23.248Z,50.63
2017-12-16T22:16:51.852Z,42.10
2017-12-16T22:19:21.321Z,59.55
2017-12-16T22:21:55.732Z,46.55
2017-12-16T22:24:24.175Z,43.45
2017-12-16T22:26:53.336Z,49.67
2017-12-16T22:29:21.806Z,52.60
2017-12-16T22:31:50.183Z,46.20
2017-12-16T22:34:18.610Z,43.53
2017-12-16T22:36:47.783Z,50.60
2017-12-16T22:39:16.231Z,60.20
2017-12-16T22:41:44.759Z,42.33
2017-12-16T22:44:13.920Z,44.80
2017-12-16T22:46:42.351Z,41.17
2017-12-16T22:49:11.687Z,43.13
2017-12-16T22:51:40.083Z,43.15
2017-12-16T22:54:08.489Z,45.97
2017-12-16T22:56:37.219Z,43.40
2017-12-16T22:59:05.658Z,42.80
2017-12-16T23:01:34.095Z,47.13
2017-12-16T23:04:02.606Z,44.50
2017-12-16T23:06:31.470Z,36.30
2017-12-16T23:08:59.843Z,39.40
2017-12-16T23:11:28.393Z,44.67
2017-12-16T23:13:56.848Z,42.95
2017-12-16T23:16:35.640Z,39.63
2017-12-16T23:19:04.021Z,49.60
2017-12-16T23:21:32.411Z,40.22
2017-12-16T23:24:00.860Z,44.75
2017-12-16T23:26:29.276Z,47.80
2017-12-16T23:28:58.163Z,44.08
2017-12-16T23:31:26.597Z,42.15
2017-12-16T23:33:54.974Z,44.92
2017-12-16T23:36:23.346Z,40.30
2017-12-16T23:38:51.787Z,39.47
2017-12-16T23:41:20.171Z,42.58
2017-12-16T23:43:49.193Z,40.72
2017-12-16T23:46:17.814Z,43.87
2017-12-16T23:48:46.210Z,46.92
2017-12-16T23:51:14.582Z,39.13
2017-12-16T23:53:42.984Z,48.25
2017-12-16T23:56:11.349Z,47.20
2017-12-16T23:58:39.718Z,41.22
